EKYT/AAL METAR and TAF weather

Enter ICAO airport designator
Station Type Date Time Source
EKYT METAR 2019/12/14 05:50 UTC NOAA

EKYT 140550Z AUTO 13011KT 9999 BKN022/// BKN070/// 02/00 Q0979


Station Type Date Time Source
EKYT Decoded METAR 2019/12/14 05:50 UTC NOAA

Aalborg, Denmark (EKYT) 57-06N 009-51E 13M
Dec 14, 2019 - 12:50 AM EST / 2019.12.14 0550 UTC
Wind: from the SE (130 degrees) at 13 MPH (11 KT):0
Visibility: greater than 7 mile(s):0
Sky conditions: mostly cloudy
Temperature: 35 F (2 C)
Windchill: 26 F (-3 C):1
Dew Point: 32 F (0 C)
Relative Humidity: 86%
Pressure (altimeter): 28.91 in. Hg (0979 hPa)
ob: EKYT 140550Z AUTO 13011KT 9999 BKN022/// BKN070/// 02/00 Q0979
cycle: 6

Station Type Date Time Source
EKYT TAF 2019/12/14 06:27 UTC NOAA

TAF TAF EKYT 140522Z 1406/1506 13012KT 8000 -RA BKN020
BECMG 1408/1410 4000 BR BKN008
TEMPO 1410/1418 7000 NSW BKN012
BECMG 1418/1421 22010KT 8000 NSW BKN015
TEMPO 1421/1503 24015G25KT 4000 SHRA BKN015CB

Example: see airport list